PWSweather.com
Personal Weather Stations
Station Observations

AwhituWaiuku, CA 268400

Lat: -37.058, Lon: -174.6346

Elevation: 250

Station Type: Personal

http://www.weather-display.com/windy/gb/grahamsbeach.htm

High Low Average
Temperature 68.0°F20.0°F 55.4°F13.0°F 60.1°F15.6°F
Dew Point 53.8°F12.1°F 38.1°F3.4°F 47.3°F8.5°F
Winds 24.2 mph WSW38.9 mph WSW 4.6 mph 7.4 mph 14.0 mph 22.5 mph
Wind Gusts 42.6 mph68.6 mph 4.6 mph7.4 mph 14.8 mph23.8 mph
Humidity 83% 46% 64%
Pressure 29.91 in1012.90 in 29.74 in1007.10 in -
Precipitation 0.59 in15.00 in - -
Hour Temp Dew Point Humidity Winds Wind Gusts Pressure Precip Precip Rate Daily Precip Total
12:00 AM 59.0°F15.0°C 46.4°F8.0°C 63% 6.9 mph NW11.1 kmh NW 6.9 mph11.1 kmh 29.91 in1012.9 mb 0.00 in0.0 mm 0.00 in/hr0.0 mm/hr 0.00 in0.0 mm
12:30 AM 60.8°F16.0°C 48.1°F8.9°C 63% 12.7 mph NW20.4 kmh NW 12.7 mph20.4 kmh 29.88 in1011.9 mb 0.00 in0.0 mm 0.00 in/hr0.0 mm/hr 0.00 in0.0 mm
01:00 AM 60.8°F16.0°C 48.1°F8.9°C 63% 12.7 mph NW20.4 kmh NW 12.7 mph20.4 kmh 29.88 in1011.9 mb 0.00 in0.0 mm 0.00 in/hr0.0 mm/hr 0.00 in0.0 mm
01:30 AM 60.8°F16.0°C 48.1°F8.9°C 63% 8.1 mph NW13.0 kmh NW 8.1 mph13.0 kmh 29.85 in1010.8 mb 0.00 in0.0 mm 0.00 in/hr0.0 mm/hr 0.00 in0.0 mm
02:00 AM 60.8°F16.0°C 48.1°F8.9°C 63% 8.1 mph NW13.0 kmh NW 8.1 mph13.0 kmh 29.85 in1010.8 mb 0.00 in0.0 mm 0.00 in/hr0.0 mm/hr 0.00 in0.0 mm
02:30 AM 60.8°F16.0°C 48.1°F8.9°C 63% 8.1 mph NW13.0 kmh NW 8.1 mph13.0 kmh 29.83 in1010.2 mb 0.00 in0.0 mm 0.00 in/hr0.0 mm/hr 0.00 in0.0 mm
03:00 AM 60.8°F16.0°C 48.1°F8.9°C 63% 8.1 mph NW13.0 kmh NW 8.1 mph13.0 kmh 29.83 in1010.2 mb 0.00 in0.0 mm 0.00 in/hr0.0 mm/hr 0.00 in0.0 mm
03:30 AM 60.8°F16.0°C 48.1°F8.9°C 63% 13.8 mph WNW22.2 kmh WNW 13.8 mph22.2 kmh 29.83 in1010.2 mb 0.00 in0.0 mm 0.00 in/hr0.0 mm/hr 0.00 in0.0 mm
04:00 AM 60.8°F16.0°C 48.1°F8.9°C 63% 13.8 mph WNW22.2 kmh WNW 13.8 mph22.2 kmh 29.83 in1010.2 mb 0.00 in0.0 mm 0.00 in/hr0.0 mm/hr 0.00 in0.0 mm
04:30 AM 60.8°F16.0°C 51.7°F10.9°C 72% 9.2 mph NW14.8 kmh NW 9.2 mph14.8 kmh 29.80 in1009.1 mb 0.00 in0.0 mm 0.00 in/hr0.0 mm/hr 0.00 in0.0 mm
05:00 AM 60.8°F16.0°C 51.7°F10.9°C 72% 9.2 mph NW14.8 kmh NW 9.2 mph14.8 kmh 29.80 in1009.1 mb 0.00 in0.0 mm 0.00 in/hr0.0 mm/hr 0.00 in0.0 mm
05:30 AM 60.8°F16.0°C 51.7°F10.9°C 72% 8.1 mph WNW13.0 kmh WNW 8.1 mph13.0 kmh 29.80 in1009.1 mb 0.00 in0.0 mm 0.00 in/hr0.0 mm/hr 0.00 in0.0 mm
06:00 AM 60.8°F16.0°C 51.7°F10.9°C 72% 8.1 mph WNW13.0 kmh WNW 8.1 mph13.0 kmh 29.80 in1009.1 mb 0.00 in0.0 mm 0.00 in/hr0.0 mm/hr 0.00 in0.0 mm
06:30 AM 59.0°F15.0°C 53.8°F12.1°C 83% 12.7 mph WSW20.4 kmh WSW 12.7 mph20.4 kmh 29.83 in1010.2 mb 0.00 in0.0 mm 0.00 in/hr0.0 mm/hr 0.00 in0.0 mm
07:00 AM 59.0°F15.0°C 53.8°F12.1°C 83% 12.7 mph WSW20.4 kmh WSW 12.7 mph20.4 kmh 29.83 in1010.2 mb 0.00 in0.0 mm 0.00 in/hr0.0 mm/hr 0.00 in0.0 mm
07:30 AM 59.0°F15.0°C 53.8°F12.1°C 83% 4.6 mph NW7.4 kmh NW 4.6 mph7.4 kmh 29.80 in1009.1 mb 0.00 in0.0 mm 0.00 in/hr0.0 mm/hr 0.00 in0.0 mm
08:00 AM 59.0°F15.0°C 53.8°F12.1°C 83% 4.6 mph NW7.4 kmh NW 4.6 mph7.4 kmh 29.80 in1009.1 mb 0.00 in0.0 mm 0.00 in/hr0.0 mm/hr 0.00 in0.0 mm
08:30 AM 59.0°F15.0°C 53.8°F12.1°C 83% 6.9 mph NW11.1 kmh NW 6.9 mph11.1 kmh 29.83 in1010.2 mb 0.00 in0.0 mm 0.00 in/hr0.0 mm/hr 0.00 in0.0 mm
09:00 AM 59.0°F15.0°C 53.8°F12.1°C 83% 6.9 mph NW11.1 kmh NW 6.9 mph11.1 kmh 29.83 in1010.2 mb 0.00 in0.0 mm 0.00 in/hr0.0 mm/hr 0.00 in0.0 mm
09:30 AM 59.0°F15.0°C 53.8°F12.1°C 83% 6.9 mph NW11.1 kmh NW 6.9 mph11.1 kmh 29.80 in1009.1 mb 0.00 in0.0 mm 0.00 in/hr0.0 mm/hr 0.00 in0.0 mm
10:00 AM 59.0°F15.0°C 53.8°F12.1°C 83% 6.9 mph NW11.1 kmh NW 6.9 mph11.1 kmh 29.80 in1009.1 mb 0.59 in15.0 mm 1.18 in/hr30.0 mm/hr 0.59 in15.0 mm
10:30 AM 60.8°F16.0°C 48.1°F8.9°C 63% 10.4 mph WNW16.7 kmh WNW 10.4 mph16.7 kmh 29.80 in1009.1 mb 0.00 in0.0 mm 0.00 in/hr0.0 mm/hr 0.59 in15.0 mm
11:00 AM 60.8°F16.0°C 48.1°F8.9°C 63% 10.4 mph WNW16.7 kmh WNW 10.4 mph16.7 kmh 29.80 in1009.1 mb 0.00 in0.0 mm 0.00 in/hr0.0 mm/hr 0.59 in15.0 mm
11:30 AM 64.4°F18.0°C 43.2°F6.2°C 46% 9.2 mph WNW14.8 kmh WNW 9.2 mph14.8 kmh 29.77 in1008.1 mb 0.00 in0.0 mm 0.00 in/hr0.0 mm/hr 0.59 in15.0 mm
12:00 PM 64.4°F18.0°C 43.2°F6.2°C 46% 9.2 mph WNW14.8 kmh WNW 9.2 mph14.8 kmh 29.77 in1008.1 mb 0.00 in0.0 mm 0.00 in/hr0.0 mm/hr 0.59 in15.0 mm
12:30 PM 68.0°F20.0°C 46.4°F8.0°C 46% 15.0 mph W24.1 kmh W 15.0 mph24.1 kmh 29.77 in1008.1 mb 0.00 in0.0 mm 0.00 in/hr0.0 mm/hr 0.59 in15.0 mm
01:00 PM 68.0°F20.0°C 46.4°F8.0°C 46% 15.0 mph W24.1 kmh W 15.0 mph24.1 kmh 29.77 in1008.1 mb 0.00 in0.0 mm 0.00 in/hr0.0 mm/hr 0.59 in15.0 mm
01:30 PM 66.2°F19.0°C 44.8°F7.1°C 46% 19.6 mph W31.5 kmh W 19.6 mph31.5 kmh 29.74 in1007.1 mb 0.00 in0.0 mm 0.00 in/hr0.0 mm/hr 0.59 in15.0 mm
02:00 PM 66.2°F19.0°C 44.8°F7.1°C 46% 19.6 mph W31.5 kmh W 19.6 mph31.5 kmh 29.74 in1007.1 mb 0.00 in0.0 mm 0.00 in/hr0.0 mm/hr 0.59 in15.0 mm
02:30 PM 60.8°F16.0°C 48.1°F8.9°C 63% 20.7 mph WSW33.3 kmh WSW 20.7 mph33.3 kmh 29.77 in1008.1 mb 0.00 in0.0 mm 0.00 in/hr0.0 mm/hr 0.59 in15.0 mm
03:00 PM 60.8°F16.0°C 48.1°F8.9°C 63% 20.7 mph WSW33.3 kmh WSW 20.7 mph33.3 kmh 29.77 in1008.1 mb 0.00 in0.0 mm 0.00 in/hr0.0 mm/hr 0.59 in15.0 mm
03:30 PM 62.6°F17.0°C 49.8°F9.9°C 63% 19.6 mph WSW31.5 kmh WSW 19.6 mph31.5 kmh 29.77 in1008.1 mb 0.00 in0.0 mm 0.00 in/hr0.0 mm/hr 0.59 in15.0 mm
04:00 PM 62.6°F17.0°C 49.8°F9.9°C 63% 19.6 mph WSW31.5 kmh WSW 19.6 mph31.5 kmh 29.77 in1008.1 mb 0.00 in0.0 mm 0.00 in/hr0.0 mm/hr 0.59 in15.0 mm
04:30 PM 62.6°F17.0°C 49.8°F9.9°C 63% 24.2 mph WSW38.9 kmh WSW 24.2 mph38.9 kmh 29.77 in1008.1 mb 0.00 in0.0 mm 0.00 in/hr0.0 mm/hr 0.59 in15.0 mm
05:00 PM 62.6°F17.0°C 49.8°F9.9°C 63% 24.2 mph WSW38.9 kmh WSW 24.2 mph38.9 kmh 29.77 in1008.1 mb 0.00 in0.0 mm 0.00 in/hr0.0 mm/hr 0.59 in15.0 mm
05:30 PM 60.8°F16.0°C 48.1°F8.9°C 63% 23.0 mph WSW37.0 kmh WSW 23.0 mph37.0 kmh 29.77 in1008.1 mb 0.00 in0.0 mm 0.00 in/hr0.0 mm/hr 0.59 in15.0 mm
06:00 PM 60.8°F16.0°C 48.1°F8.9°C 63% 23.0 mph WSW37.0 kmh WSW 23.0 mph37.0 kmh 29.77 in1008.1 mb 0.00 in0.0 mm 0.00 in/hr0.0 mm/hr 0.59 in15.0 mm
06:30 PM 55.4°F13.0°C 46.5°F8.1°C 72% 24.2 mph WSW38.9 kmh WSW 42.6 mph68.6 kmh 29.77 in1008.1 mb 0.00 in0.0 mm 0.00 in/hr0.0 mm/hr 0.59 in15.0 mm
07:00 PM 55.4°F13.0°C 46.5°F8.1°C 72% 24.2 mph WSW38.9 kmh WSW 42.6 mph68.6 kmh 29.77 in1008.1 mb 0.00 in0.0 mm 0.00 in/hr0.0 mm/hr 0.59 in15.0 mm
07:30 PM 55.4°F13.0°C 38.1°F3.4°C 52% 21.9 mph WSW35.2 kmh WSW 21.9 mph35.2 kmh 29.80 in1009.1 mb 0.00 in0.0 mm 0.00 in/hr0.0 mm/hr 0.59 in15.0 mm
08:00 PM 55.4°F13.0°C 38.1°F3.4°C 52% 21.9 mph WSW35.2 kmh WSW 21.9 mph35.2 kmh 29.80 in1009.1 mb 0.00 in0.0 mm 0.00 in/hr0.0 mm/hr 0.59 in15.0 mm
08:30 PM 55.4°F13.0°C 38.1°F3.4°C 52% 16.1 mph WSW25.9 kmh WSW 16.1 mph25.9 kmh 29.80 in1009.1 mb 0.00 in0.0 mm 0.00 in/hr0.0 mm/hr 0.59 in15.0 mm
09:00 PM 55.4°F13.0°C 38.1°F3.4°C 52% 16.1 mph WSW25.9 kmh WSW 16.1 mph25.9 kmh 29.80 in1009.1 mb 0.00 in0.0 mm 0.00 in/hr0.0 mm/hr 0.59 in15.0 mm
09:30 PM 55.4°F13.0°C 38.1°F3.4°C 52% 15.0 mph WSW24.1 kmh WSW 15.0 mph24.1 kmh 29.83 in1010.2 mb 0.00 in0.0 mm 0.00 in/hr0.0 mm/hr 0.59 in15.0 mm
10:00 PM 55.4°F13.0°C 38.1°F3.4°C 52% 15.0 mph WSW24.1 kmh WSW 15.0 mph24.1 kmh 29.83 in1010.2 mb 0.00 in0.0 mm 0.00 in/hr0.0 mm/hr 0.59 in15.0 mm
10:30 PM 55.4°F13.0°C 38.1°F3.4°C 52% 16.1 mph WSW25.9 kmh WSW 16.1 mph25.9 kmh 29.85 in1010.8 mb 0.00 in0.0 mm 0.00 in/hr0.0 mm/hr 0.59 in15.0 mm
11:30 PM 55.4°F13.0°C 38.1°F3.4°C 52% 16.1 mph WSW25.9 kmh WSW 16.1 mph25.9 kmh 29.85 in1010.8 mb 0.00 in0.0 mm 0.00 in/hr0.0 mm/hr 0.59 in15.0 mm